Oriente Gloria — 3FAO2 — position and weather

sailwx.info

Track history (hours):
 
Tides and Currents Weather Stations Pressure Air Temp Water Temp Dewpoint Dewpoint Depression Visibility Wind Speed Wind Dir Waves Ship Positions

Oriente Gloria

Last reported at 2017-Nov-20 00:30 UTC. Time now 2017-Dec-17 08:22 UTC.
Position S 31°27' E 033°48'.
Warning: this ship's position is 27 days out of date.

Length 199 m; draft 6.6 m.

Type: Cargo ship. MMSI: 373981000.

Date/timePositionNaut miles runAvg speedWind from/ knotsBaromVisibWave heightAir tempDewpointWater temp
2017-Nov-20 00:30S 31°27' E 033°48'1712.6
2017-Nov-19 23:07S 31°20' E 034°06'412.7
2017-Nov-19 22:50S 31°19' E 034°10'412.7
2017-Nov-19 22:31S 31°17' E 034°15'712.9
2017-Nov-19 21:59S 31°15' E 034°22'613.2
2017-Nov-19 21:30S 31°12' E 034°29'713.4
2017-Nov-19 21:00S 31°09' E 034°36'713.4
2017-Nov-19 20:31S 31°07' E 034°43'713.3
2017-Nov-19 19:59S 31°04' E 034°50'613.1
2017-Nov-19 19:31S 31°01' E 034°57'713.3
2017-Nov-19 19:01S 30°59' E 035°04'1013.0
2017-Nov-19 18:15S 30°54' E 035°15'  
Track history (hours):
 
Tides and Currents Weather Stations Pressure Air Temp Water Temp Dewpoint Dewpoint Depression Visibility Wind Speed Wind Dir Waves Ship Positions

Oriente Gloria

Last reported at 2017-Nov-20 00:30 UTC. Time now 2017-Dec-17 08:22 UTC.
Position S 31°27' E 033°48'.
Warning: this ship's position is 27 days out of date.

Length 199 m; draft 6.6 m.

Type: Cargo ship. MMSI: 373981000.

Date/timePositionNaut miles runAvg speedWind from/ knotsBaromVisibWave heightAir tempDewpointWater temp
2017-Nov-20 00:30S 31°27' E 033°48'1712.6
2017-Nov-19 23:07S 31°20' E 034°06'412.7
2017-Nov-19 22:50S 31°19' E 034°10'412.7
2017-Nov-19 22:31S 31°17' E 034°15'712.9
2017-Nov-19 21:59S 31°15' E 034°22'613.2
2017-Nov-19 21:30S 31°12' E 034°29'713.4
2017-Nov-19 21:00S 31°09' E 034°36'713.4
2017-Nov-19 20:31S 31°07' E 034°43'713.3
2017-Nov-19 19:59S 31°04' E 034°50'613.1
2017-Nov-19 19:31S 31°01' E 034°57'713.3
2017-Nov-19 19:01S 30°59' E 035°04'1013.0
2017-Nov-19 18:15S 30°54' E 035°15'  

Dump ship's entire track history